sensor_id;sensor_type;location;lat;lon;timestamp;temperature;humidity
32348;DHT22;18821;44.800;10.326;2023-03-14T00:01:24;12.00;68.00
32348;DHT22;18821;44.800;10.326;2023-03-14T00:03:50;12.00;68.50
32348;DHT22;18821;44.800;10.326;2023-03-14T00:06:17;11.90;67.90
32348;DHT22;18821;44.800;10.326;2023-03-14T00:08:43;11.90;67.40
32348;DHT22;18821;44.800;10.326;2023-03-14T00:11:16;11.90;68.40
32348;DHT22;18821;44.800;10.326;2023-03-14T00:13:42;11.80;66.00
32348;DHT22;18821;44.800;10.326;2023-03-14T00:16:11;11.80;64.50
32348;DHT22;18821;44.800;10.326;2023-03-14T00:18:38;11.70;63.10
32348;DHT22;18821;44.800;10.326;2023-03-14T00:21:06;11.70;62.40
32348;DHT22;18821;44.800;10.326;2023-03-14T00:23:33;11.70;62.40
32348;DHT22;18821;44.800;10.326;2023-03-14T00:26:00;11.70;61.60
32348;DHT22;18821;44.800;10.326;2023-03-14T00:28:27;11.60;61.80
32348;DHT22;18821;44.800;10.326;2023-03-14T00:30:53;11.60;62.70
32348;DHT22;18821;44.800;10.326;2023-03-14T00:33:20;11.60;63.80
32348;DHT22;18821;44.800;10.326;2023-03-14T00:36:08;11.60;62.00
32348;DHT22;18821;44.800;10.326;2023-03-14T00:38:37;11.60;57.60
32348;DHT22;18821;44.800;10.326;2023-03-14T00:41:09;11.60;58.60
32348;DHT22;18821;44.800;10.326;2023-03-14T00:43:37;11.50;62.00
32348;DHT22;18821;44.800;10.326;2023-03-14T00:46:04;11.50;67.80
32348;DHT22;18821;44.800;10.326;2023-03-14T00:48:30;11.40;76.40
32348;DHT22;18821;44.800;10.326;2023-03-14T00:50:56;11.30;85.00
32348;DHT22;18821;44.800;10.326;2023-03-14T00:53:22;11.20;90.90
32348;DHT22;18821;44.800;10.326;2023-03-14T00:55:49;11.20;94.60
32348;DHT22;18821;44.800;10.326;2023-03-14T00:58:17;11.10;96.50
32348;DHT22;18821;44.800;10.326;2023-03-14T01:00:44;11.10;97.00
32348;DHT22;18821;44.800;10.326;2023-03-14T01:03:12;11.10;96.40
32348;DHT22;18821;44.800;10.326;2023-03-14T01:05:39;11.10;96.50
32348;DHT22;18821;44.800;10.326;2023-03-14T01:08:06;11.00;96.00
32348;DHT22;18821;44.800;10.326;2023-03-14T01:10:41;11.00;96.40
32348;DHT22;18821;44.800;10.326;2023-03-14T01:13:08;11.00;95.20
32348;DHT22;18821;44.800;10.326;2023-03-14T01:15:36;10.90;94.90
32348;DHT22;18821;44.800;10.326;2023-03-14T01:18:04;10.90;95.40
32348;DHT22;18821;44.800;10.326;2023-03-14T01:20:30;10.90;96.40
32348;DHT22;18821;44.800;10.326;2023-03-14T01:22:56;10.80;97.20
32348;DHT22;18821;44.800;10.326;2023-03-14T01:25:22;10.90;97.60
32348;DHT22;18821;44.800;10.326;2023-03-14T01:27:48;10.90;97.70
32348;DHT22;18821;44.800;10.326;2023-03-14T01:30:15;10.90;96.70
32348;DHT22;18821;44.800;10.326;2023-03-14T01:32:41;10.90;95.90
32348;DHT22;18821;44.800;10.326;2023-03-14T01:35:07;10.80;95.60
32348;DHT22;18821;44.800;10.326;2023-03-14T01:37:34;10.80;95.80
32348;DHT22;18821;44.800;10.326;2023-03-14T01:40:00;10.80;95.90
32348;DHT22;18821;44.800;10.326;2023-03-14T01:42:26;10.70;96.40
32348;DHT22;18821;44.800;10.326;2023-03-14T01:44:56;10.80;96.10
32348;DHT22;18821;44.800;10.326;2023-03-14T01:47:23;10.70;95.60
32348;DHT22;18821;44.800;10.326;2023-03-14T01:50:04;10.70;95.80
32348;DHT22;18821;44.800;10.326;2023-03-14T01:52:35;10.70;95.40
32348;DHT22;18821;44.800;10.326;2023-03-14T01:55:09;10.70;95.70
32348;DHT22;18821;44.800;10.326;2023-03-14T01:57:54;10.70;94.80
32348;DHT22;18821;44.800;10.326;2023-03-14T02:00:23;10.70;94.80
32348;DHT22;18821;44.800;10.326;2023-03-14T02:02:55;10.70;94.20
32348;DHT22;18821;44.800;10.326;2023-03-14T02:05:26;10.70;94.30
32348;DHT22;18821;44.800;10.326;2023-03-14T02:08:02;10.70;94.20
32348;DHT22;18821;44.800;10.326;2023-03-14T02:10:39;10.60;93.10
32348;DHT22;18821;44.800;10.326;2023-03-14T02:13:07;10.60;92.80
32348;DHT22;18821;44.800;10.326;2023-03-14T02:15:53;10.60;91.80
32348;DHT22;18821;44.800;10.326;2023-03-14T02:18:37;10.60;91.80
32348;DHT22;18821;44.800;10.326;2023-03-14T02:21:49;10.50;91.90
32348;DHT22;18821;44.800;10.326;2023-03-14T02:27:16;10.40;92.00
32348;DHT22;18821;44.800;10.326;2023-03-14T02:32:14;10.40;92.80
32348;DHT22;18821;44.800;10.326;2023-03-14T02:34:43;10.40;92.30
32348;DHT22;18821;44.800;10.326;2023-03-14T02:37:13;10.40;91.90
32348;DHT22;18821;44.800;10.326;2023-03-14T02:39:44;10.30;92.10
32348;DHT22;18821;44.800;10.326;2023-03-14T02:42:13;10.30;92.20
32348;DHT22;18821;44.800;10.326;2023-03-14T02:45:25;10.30;93.00
32348;DHT22;18821;44.800;10.326;2023-03-14T02:47:54;10.20;93.30
32348;DHT22;18821;44.800;10.326;2023-03-14T02:50:26;10.30;94.10
32348;DHT22;18821;44.800;10.326;2023-03-14T02:52:55;10.30;93.80
32348;DHT22;18821;44.800;10.326;2023-03-14T02:55:23;10.20;93.60
32348;DHT22;18821;44.800;10.326;2023-03-14T02:57:50;10.30;95.20
32348;DHT22;18821;44.800;10.326;2023-03-14T03:00:17;10.30;93.80
32348;DHT22;18821;44.800;10.326;2023-03-14T03:02:43;10.30;94.10
32348;DHT22;18821;44.800;10.326;2023-03-14T03:05:09;10.30;94.70
32348;DHT22;18821;44.800;10.326;2023-03-14T03:07:35;10.30;94.00
32348;DHT22;18821;44.800;10.326;2023-03-14T03:10:02;10.30;93.90
32348;DHT22;18821;44.800;10.326;2023-03-14T03:12:28;10.30;94.00
32348;DHT22;18821;44.800;10.326;2023-03-14T03:14:54;10.20;94.70
32348;DHT22;18821;44.800;10.326;2023-03-14T03:17:20;10.20;95.00
32348;DHT22;18821;44.800;10.326;2023-03-14T03:19:46;10.20;95.20
32348;DHT22;18821;44.800;10.326;2023-03-14T03:22:12;10.20;95.50
32348;DHT22;18821;44.800;10.326;2023-03-14T03:24:40;10.20;95.60
32348;DHT22;18821;44.800;10.326;2023-03-14T03:27:06;10.20;96.60
32348;DHT22;18821;44.800;10.326;2023-03-14T03:29:32;10.20;96.90
32348;DHT22;18821;44.800;10.326;2023-03-14T03:31:58;10.20;96.40
32348;DHT22;18821;44.800;10.326;2023-03-14T03:34:25;10.20;97.80
32348;DHT22;18821;44.800;10.326;2023-03-14T03:36:56;10.20;97.20
32348;DHT22;18821;44.800;10.326;2023-03-14T03:39:22;10.20;97.90
32348;DHT22;18821;44.800;10.326;2023-03-14T03:41:48;10.20;98.30
32348;DHT22;18821;44.800;10.326;2023-03-14T03:44:15;10.20;98.20
32348;DHT22;18821;44.800;10.326;2023-03-14T03:46:41;10.30;97.60
32348;DHT22;18821;44.800;10.326;2023-03-14T03:49:07;10.30;96.50
32348;DHT22;18821;44.800;10.326;2023-03-14T03:51:33;10.30;97.20
32348;DHT22;18821;44.800;10.326;2023-03-14T03:53:59;10.30;96.20
32348;DHT22;18821;44.800;10.326;2023-03-14T03:56:32;10.30;97.20
32348;DHT22;18821;44.800;10.326;2023-03-14T03:58:58;10.20;99.30
32348;DHT22;18821;44.800;10.326;2023-03-14T04:01:24;10.10;99.90
32348;DHT22;18821;44.800;10.326;2023-03-14T04:03:52;10.00;99.90
32348;DHT22;18821;44.800;10.326;2023-03-14T04:06:19;10.10;99.90
32348;DHT22;18821;44.800;10.326;2023-03-14T04:08:48;10.10;99.90
32348;DHT22;18821;44.800;10.326;2023-03-14T04:11:26;10.10;99.90
32348;DHT22;18821;44.800;10.326;2023-03-14T04:14:15;10.10;99.90
32348;DHT22;18821;44.800;10.326;2023-03-14T04:16:41;10.10;99.90
32348;DHT22;18821;44.800;10.326;2023-03-14T04:19:11;10.20;99.90
32348;DHT22;18821;44.800;10.326;2023-03-14T04:21:37;10.20;99.90
32348;DHT22;18821;44.800;10.326;2023-03-14T04:24:09;10.20;99.90
32348;DHT22;18821;44.800;10.326;2023-03-14T04:26:35;10.30;99.90
32348;DHT22;18821;44.800;10.326;2023-03-14T04:29:01;10.30;99.90
32348;DHT22;18821;44.800;10.326;2023-03-14T04:31:27;10.30;99.90
32348;DHT22;18821;44.800;10.326;2023-03-14T04:33:53;10.30;99.90
32348;DHT22;18821;44.800;10.326;2023-03-14T04:36:27;10.30;99.90
32348;DHT22;18821;44.800;10.326;2023-03-14T04:38:53;10.30;99.90
32348;DHT22;18821;44.800;10.326;2023-03-14T04:41:21;10.30;99.90
32348;DHT22;18821;44.800;10.326;2023-03-14T04:43:47;10.30;99.90
32348;DHT22;18821;44.800;10.326;2023-03-14T04:46:13;10.30;99.90
32348;DHT22;18821;44.800;10.326;2023-03-14T04:48:39;10.30;99.90
32348;DHT22;18821;44.800;10.326;2023-03-14T04:51:07;10.20;99.90
32348;DHT22;18821;44.800;10.326;2023-03-14T04:53:34;10.20;99.90
32348;DHT22;18821;44.800;10.326;2023-03-14T04:56:05;10.10;99.90
32348;DHT22;18821;44.800;10.326;2023-03-14T04:58:36;10.00;99.90
32348;DHT22;18821;44.800;10.326;2023-03-14T05:01:05;10.00;99.90
32348;DHT22;18821;44.800;10.326;2023-03-14T05:03:40;10.00;99.90
32348;DHT22;18821;44.800;10.326;2023-03-14T05:06:26;9.90;99.90
32348;DHT22;18821;44.800;10.326;2023-03-14T05:09:23;9.80;99.90
32348;DHT22;18821;44.800;10.326;2023-03-14T05:12:08;9.70;99.90
32348;DHT22;18821;44.800;10.326;2023-03-14T05:14:52;9.70;99.90
32348;DHT22;18821;44.800;10.326;2023-03-14T05:17:24;9.70;99.90
32348;DHT22;18821;44.800;10.326;2023-03-14T05:20:09;9.70;99.90
32348;DHT22;18821;44.800;10.326;2023-03-14T05:23:11;9.70;99.90
32348;DHT22;18821;44.800;10.326;2023-03-14T05:26:06;9.60;99.90
32348;DHT22;18821;44.800;10.326;2023-03-14T05:28:32;9.60;99.90
32348;DHT22;18821;44.800;10.326;2023-03-14T05:31:24;9.60;99.90
32348;DHT22;18821;44.800;10.326;2023-03-14T05:34:10;9.50;99.90
32348;DHT22;18821;44.800;10.326;2023-03-14T05:36:49;9.50;99.90
32348;DHT22;18821;44.800;10.326;2023-03-14T05:39:33;9.50;99.90
32348;DHT22;18821;44.800;10.326;2023-03-14T05:42:10;9.60;99.90
32348;DHT22;18821;44.800;10.326;2023-03-14T05:45:08;9.60;99.90
32348;DHT22;18821;44.800;10.326;2023-03-14T05:47:55;9.60;99.90
32348;DHT22;18821;44.800;10.326;2023-03-14T05:50:42;9.60;99.90
32348;DHT22;18821;44.800;10.326;2023-03-14T05:53:31;9.70;99.90
32348;DHT22;18821;44.800;10.326;2023-03-14T05:56:14;9.70;99.90
32348;DHT22;18821;44.800;10.326;2023-03-14T05:59:06;9.70;99.90
32348;DHT22;18821;44.800;10.326;2023-03-14T06:01:57;9.70;99.90
32348;DHT22;18821;44.800;10.326;2023-03-14T06:04:26;9.70;99.90
32348;DHT22;18821;44.800;10.326;2023-03-14T06:06:56;9.70;99.90
32348;DHT22;18821;44.800;10.326;2023-03-14T06:09:22;9.70;99.90
32348;DHT22;18821;44.800;10.326;2023-03-14T06:11:50;9.70;99.90
32348;DHT22;18821;44.800;10.326;2023-03-14T06:14:16;9.80;99.90
32348;DHT22;18821;44.800;10.326;2023-03-14T06:16:46;9.80;99.90
32348;DHT22;18821;44.800;10.326;2023-03-14T06:19:14;9.80;99.90
32348;DHT22;18821;44.800;10.326;2023-03-14T06:21:41;9.80;99.90
32348;DHT22;18821;44.800;10.326;2023-03-14T06:24:07;9.90;99.90
32348;DHT22;18821;44.800;10.326;2023-03-14T06:26:39;9.90;99.90
32348;DHT22;18821;44.800;10.326;2023-03-14T06:29:05;10.00;99.90
32348;DHT22;18821;44.800;10.326;2023-03-14T06:31:33;10.10;99.90
32348;DHT22;18821;44.800;10.326;2023-03-14T06:34:03;10.20;99.90
32348;DHT22;18821;44.800;10.326;2023-03-14T06:36:30;10.20;99.90
32348;DHT22;18821;44.800;10.326;2023-03-14T06:38:57;10.20;99.90
32348;DHT22;18821;44.800;10.326;2023-03-14T06:41:25;10.10;99.90
32348;DHT22;18821;44.800;10.326;2023-03-14T06:43:52;10.10;99.90
32348;DHT22;18821;44.800;10.326;2023-03-14T06:46:20;10.10;99.90
32348;DHT22;18821;44.800;10.326;2023-03-14T06:48:47;10.20;99.90
32348;DHT22;18821;44.800;10.326;2023-03-14T06:51:13;10.30;99.90
32348;DHT22;18821;44.800;10.326;2023-03-14T06:53:39;10.40;99.90
32348;DHT22;18821;44.800;10.326;2023-03-14T06:56:06;10.40;99.90
32348;DHT22;18821;44.800;10.326;2023-03-14T06:58:33;10.50;99.90
32348;DHT22;18821;44.800;10.326;2023-03-14T07:01:01;10.50;99.90
32348;DHT22;18821;44.800;10.326;2023-03-14T07:03:32;10.50;99.90
32348;DHT22;18821;44.800;10.326;2023-03-14T07:06:00;10.60;99.90
32348;DHT22;18821;44.800;10.326;2023-03-14T07:08:26;10.60;99.90
32348;DHT22;18821;44.800;10.326;2023-03-14T07:10:52;10.70;99.90
32348;DHT22;18821;44.800;10.326;2023-03-14T07:13:21;10.80;99.90
32348;DHT22;18821;44.800;10.326;2023-03-14T07:15:54;10.90;99.90
32348;DHT22;18821;44.800;10.326;2023-03-14T07:18:20;11.00;99.90
32348;DHT22;18821;44.800;10.326;2023-03-14T07:20:46;10.90;99.90
32348;DHT22;18821;44.800;10.326;2023-03-14T07:23:13;10.90;99.90
32348;DHT22;18821;44.800;10.326;2023-03-14T07:25:45;11.10;99.90
32348;DHT22;18821;44.800;10.326;2023-03-14T07:28:12;11.00;99.90
32348;DHT22;18821;44.800;10.326;2023-03-14T07:30:41;11.20;99.90
32348;DHT22;18821;44.800;10.326;2023-03-14T07:33:16;11.30;99.90
32348;DHT22;18821;44.800;10.326;2023-03-14T07:35:42;11.40;99.90
32348;DHT22;18821;44.800;10.326;2023-03-14T07:38:08;11.40;99.90
32348;DHT22;18821;44.800;10.326;2023-03-14T07:40:39;11.60;99.90
32348;DHT22;18821;44.800;10.326;2023-03-14T07:43:06;11.60;99.90
32348;DHT22;18821;44.800;10.326;2023-03-14T07:45:47;11.70;99.40
32348;DHT22;18821;44.800;10.326;2023-03-14T07:48:13;11.80;97.40
32348;DHT22;18821;44.800;10.326;2023-03-14T07:50:39;11.90;96.50
32348;DHT22;18821;44.800;10.326;2023-03-14T07:53:05;12.10;94.70
32348;DHT22;18821;44.800;10.326;2023-03-14T07:55:31;12.30;91.60
32348;DHT22;18821;44.800;10.326;2023-03-14T07:57:57;12.40;87.40
32348;DHT22;18821;44.800;10.326;2023-03-14T08:00:23;12.40;83.00
32348;DHT22;18821;44.800;10.326;2023-03-14T08:02:49;12.60;87.30
32348;DHT22;18821;44.800;10.326;2023-03-14T08:05:15;12.90;81.40
32348;DHT22;18821;44.800;10.326;2023-03-14T08:07:41;13.00;71.70
32348;DHT22;18821;44.800;10.326;2023-03-14T08:10:08;13.10;60.70
32348;DHT22;18821;44.800;10.326;2023-03-14T08:12:34;13.30;62.10
32348;DHT22;18821;44.800;10.326;2023-03-14T08:15:00;13.50;58.10
32348;DHT22;18821;44.800;10.326;2023-03-14T08:17:28;13.80;54.70
32348;DHT22;18821;44.800;10.326;2023-03-14T08:19:54;13.80;33.40
32348;DHT22;18821;44.800;10.326;2023-03-14T08:22:19;13.90;33.70
32348;DHT22;18821;44.800;10.326;2023-03-14T08:24:45;13.90;39.20
32348;DHT22;18821;44.800;10.326;2023-03-14T08:27:11;14.10;39.80
32348;DHT22;18821;44.800;10.326;2023-03-14T08:29:39;14.30;27.60
32348;DHT22;18821;44.800;10.326;2023-03-14T08:32:07;14.40;26.30
32348;DHT22;18821;44.800;10.326;2023-03-14T08:34:33;14.60;20.50
32348;DHT22;18821;44.800;10.326;2023-03-14T08:36:59;14.40;7.70
32348;DHT22;18821;44.800;10.326;2023-03-14T08:39:25;14.30;18.10
32348;DHT22;18821;44.800;10.326;2023-03-14T08:41:51;14.50;9.80
32348;DHT22;18821;44.800;10.326;2023-03-14T08:44:17;14.50;6.60
32348;DHT22;18821;44.800;10.326;2023-03-14T08:46:43;14.60;1.00
32348;DHT22;18821;44.800;10.326;2023-03-14T08:49:09;14.40;1.00
32348;DHT22;18821;44.800;10.326;2023-03-14T08:51:35;14.40;11.80
32348;DHT22;18821;44.800;10.326;2023-03-14T08:54:01;14.40;3.90
32348;DHT22;18821;44.800;10.326;2023-03-14T08:56:27;14.40;8.90
32348;DHT22;18821;44.800;10.326;2023-03-14T08:58:52;14.10;11.60
32348;DHT22;18821;44.800;10.326;2023-03-14T09:01:18;14.00;14.70
32348;DHT22;18821;44.800;10.326;2023-03-14T09:03:44;13.90;18.40
32348;DHT22;18821;44.800;10.326;2023-03-14T09:06:11;14.10;12.10
32348;DHT22;18821;44.800;10.326;2023-03-14T09:08:37;14.20;6.70
32348;DHT22;18821;44.800;10.326;2023-03-14T09:11:07;14.10;9.00
32348;DHT22;18821;44.800;10.326;2023-03-14T09:13:33;14.20;11.90
32348;DHT22;18821;44.800;10.326;2023-03-14T09:15:59;14.30;6.10
32348;DHT22;18821;44.800;10.326;2023-03-14T09:18:25;14.50;12.90
32348;DHT22;18821;44.800;10.326;2023-03-14T09:20:51;14.60;1.40
32348;DHT22;18821;44.800;10.326;2023-03-14T09:23:17;14.40;5.80
32348;DHT22;18821;44.800;10.326;2023-03-14T09:25:43;14.20;10.80
32348;DHT22;18821;44.800;10.326;2023-03-14T09:28:09;14.20;13.10
32348;DHT22;18821;44.800;10.326;2023-03-14T09:30:35;14.10;17.20
32348;DHT22;18821;44.800;10.326;2023-03-14T09:33:00;13.80;26.70
32348;DHT22;18821;44.800;10.326;2023-03-14T09:35:26;13.60;38.90
32348;DHT22;18821;44.800;10.326;2023-03-14T09:37:52;13.60;47.00
32348;DHT22;18821;44.800;10.326;2023-03-14T09:40:19;13.60;43.00
32348;DHT22;18821;44.800;10.326;2023-03-14T09:42:48;13.50;45.80
32348;DHT22;18821;44.800;10.326;2023-03-14T09:45:42;13.40;54.30
32348;DHT22;18821;44.800;10.326;2023-03-14T09:48:19;13.40;42.90
32348;DHT22;18821;44.800;10.326;2023-03-14T09:50:49;13.30;36.80
32348;DHT22;18821;44.800;10.326;2023-03-14T09:53:24;13.30;44.80
32348;DHT22;18821;44.800;10.326;2023-03-14T09:55:51;13.40;39.90
32348;DHT22;18821;44.800;10.326;2023-03-14T09:58:22;13.40;47.30
32348;DHT22;18821;44.800;10.326;2023-03-14T10:00:50;13.40;37.30
32348;DHT22;18821;44.800;10.326;2023-03-14T10:03:32;13.40;30.50
32348;DHT22;18821;44.800;10.326;2023-03-14T10:05:59;13.30;43.20
32348;DHT22;18821;44.800;10.326;2023-03-14T10:08:25;13.30;39.30
32348;DHT22;18821;44.800;10.326;2023-03-14T10:10:51;13.30;37.60
32348;DHT22;18821;44.800;10.326;2023-03-14T10:15:52;13.70;28.50
32348;DHT22;18821;44.800;10.326;2023-03-14T10:18:19;13.80;33.40
32348;DHT22;18821;44.800;10.326;2023-03-14T10:20:49;13.70;26.10
32348;DHT22;18821;44.800;10.326;2023-03-14T10:23:26;14.00;13.60
32348;DHT22;18821;44.800;10.326;2023-03-14T10:26:16;14.00;17.40
32348;DHT22;18821;44.800;10.326;2023-03-14T10:28:51;14.20;21.60
32348;DHT22;18821;44.800;10.326;2023-03-14T10:31:18;13.90;21.80
32348;DHT22;18821;44.800;10.326;2023-03-14T10:33:59;14.00;20.40
32348;DHT22;18821;44.800;10.326;2023-03-14T10:36:28;13.90;17.00
32348;DHT22;18821;44.800;10.326;2023-03-14T10:39:25;13.80;12.40
32348;DHT22;18821;44.800;10.326;2023-03-14T10:41:55;14.10;20.70
32348;DHT22;18821;44.800;10.326;2023-03-14T10:44:26;14.40;1.00
32348;DHT22;18821;44.800;10.326;2023-03-14T10:47:00;14.60;1.00
32348;DHT22;18821;44.800;10.326;2023-03-14T10:49:30;14.50;1.00
32348;DHT22;18821;44.800;10.326;2023-03-14T10:52:13;14.30;1.00
32348;DHT22;18821;44.800;10.326;2023-03-14T10:54:39;13.90;10.10
32348;DHT22;18821;44.800;10.326;2023-03-14T10:57:05;13.70;17.30
32348;DHT22;18821;44.800;10.326;2023-03-14T10:59:41;13.80;19.70
32348;DHT22;18821;44.800;10.326;2023-03-14T11:07:38;14.20;1.00
32348;DHT22;18821;44.800;10.326;2023-03-14T11:13:30;14.30;1.00
32348;DHT22;18821;44.800;10.326;2023-03-14T11:16:09;14.40;1.00
32348;DHT22;18821;44.800;10.326;2023-03-14T11:19:13;14.40;1.00
32348;DHT22;18821;44.800;10.326;2023-03-14T11:36:16;14.20;1.00
32348;DHT22;18821;44.800;10.326;2023-03-14T11:38:58;14.40;1.00
32348;DHT22;18821;44.800;10.326;2023-03-14T11:41:35;14.50;1.00
32348;DHT22;18821;44.800;10.326;2023-03-14T11:44:19;14.80;1.00
32348;DHT22;18821;44.800;10.326;2023-03-14T11:46:53;14.70;1.00
32348;DHT22;18821;44.800;10.326;2023-03-14T11:51:56;14.40;1.00
32348;DHT22;18821;44.800;10.326;2023-03-14T11:55:04;14.30;1.00
32348;DHT22;18821;44.800;10.326;2023-03-14T11:57:31;14.40;1.00
32348;DHT22;18821;44.800;10.326;2023-03-14T12:02:34;14.40;1.00
32348;DHT22;18821;44.800;10.326;2023-03-14T12:05:23;14.20;1.00
32348;DHT22;18821;44.800;10.326;2023-03-14T12:10:42;14.10;2.90
32348;DHT22;18821;44.800;10.326;2023-03-14T12:13:11;13.90;8.90
32348;DHT22;18821;44.800;10.326;2023-03-14T12:15:56;14.00;8.90
32348;DHT22;18821;44.800;10.326;2023-03-14T12:18:35;14.40;1.00
32348;DHT22;18821;44.800;10.326;2023-03-14T12:21:10;14.70;1.00
32348;DHT22;18821;44.800;10.326;2023-03-14T12:23:43;14.50;1.00
32348;DHT22;18821;44.800;10.326;2023-03-14T12:28:43;14.50;1.00
32348;DHT22;18821;44.800;10.326;2023-03-14T12:34:43;14.70;1.00
32348;DHT22;18821;44.800;10.326;2023-03-14T12:37:01;14.80;1.00
32348;DHT22;18821;44.800;10.326;2023-03-14T12:48:08;15.10;1.00
32348;DHT22;18821;44.800;10.326;2023-03-14T12:56:51;15.00;1.00
32348;DHT22;18821;44.800;10.326;2023-03-14T13:02:24;15.10;1.00
32348;DHT22;18821;44.800;10.326;2023-03-14T13:05:01;14.70;1.00
32348;DHT22;18821;44.800;10.326;2023-03-14T13:10:26;14.60;1.00
32348;DHT22;18821;44.800;10.326;2023-03-14T13:13:10;14.70;1.00
32348;DHT22;18821;44.800;10.326;2023-03-14T13:15:43;14.70;1.00
32348;DHT22;18821;44.800;10.326;2023-03-14T13:18:29;14.80;1.00
32348;DHT22;18821;44.800;10.326;2023-03-14T13:21:05;15.10;1.00
32348;DHT22;18821;44.800;10.326;2023-03-14T13:23:34;15.00;1.00
32348;DHT22;18821;44.800;10.326;2023-03-14T13:26:02;15.00;1.00
32348;DHT22;18821;44.800;10.326;2023-03-14T13:28:29;15.00;1.00
32348;DHT22;18821;44.800;10.326;2023-03-14T13:30:58;15.00;1.00
32348;DHT22;18821;44.800;10.326;2023-03-14T13:33:24;15.30;1.00
32348;DHT22;18821;44.800;10.326;2023-03-14T13:36:05;15.40;1.00
32348;DHT22;18821;44.800;10.326;2023-03-14T13:38:34;15.10;1.00
32348;DHT22;18821;44.800;10.326;2023-03-14T13:41:04;15.40;1.00
32348;DHT22;18821;44.800;10.326;2023-03-14T13:43:33;15.30;1.00
32348;DHT22;18821;44.800;10.326;2023-03-14T13:46:16;14.90;1.00
32348;DHT22;18821;44.800;10.326;2023-03-14T13:49:06;14.80;1.00
32348;DHT22;18821;44.800;10.326;2023-03-14T13:51:33;15.00;1.00
32348;DHT22;18821;44.800;10.326;2023-03-14T13:53:59;14.80;1.00
32348;DHT22;18821;44.800;10.326;2023-03-14T13:56:28;15.10;1.00
32348;DHT22;18821;44.800;10.326;2023-03-14T13:58:54;15.30;1.00
32348;DHT22;18821;44.800;10.326;2023-03-14T14:01:35;15.40;1.00
32348;DHT22;18821;44.800;10.326;2023-03-14T14:04:07;15.20;1.00
32348;DHT22;18821;44.800;10.326;2023-03-14T14:06:38;15.00;1.00
32348;DHT22;18821;44.800;10.326;2023-03-14T14:09:23;15.20;1.00
32348;DHT22;18821;44.800;10.326;2023-03-14T14:17:26;15.30;1.00
32348;DHT22;18821;44.800;10.326;2023-03-14T14:19:54;15.10;1.00
32348;DHT22;18821;44.800;10.326;2023-03-14T14:22:22;14.90;1.00
32348;DHT22;18821;44.800;10.326;2023-03-14T14:24:48;14.70;1.00
32348;DHT22;18821;44.800;10.326;2023-03-14T14:27:37;14.80;1.00
32348;DHT22;18821;44.800;10.326;2023-03-14T14:32:43;14.90;1.00
32348;DHT22;18821;44.800;10.326;2023-03-14T14:35:21;14.90;1.00
32348;DHT22;18821;44.800;10.326;2023-03-14T14:37:48;14.90;1.00
32348;DHT22;18821;44.800;10.326;2023-03-14T14:40:23;15.00;1.00
32348;DHT22;18821;44.800;10.326;2023-03-14T14:42:50;15.20;1.00
32348;DHT22;18821;44.800;10.326;2023-03-14T14:45:19;15.50;1.00
32348;DHT22;18821;44.800;10.326;2023-03-14T14:53:34;15.70;1.00
32348;DHT22;18821;44.800;10.326;2023-03-14T14:56:28;15.50;1.00
32348;DHT22;18821;44.800;10.326;2023-03-14T14:59:00;15.30;1.00
32348;DHT22;18821;44.800;10.326;2023-03-14T15:01:37;15.30;1.00
32348;DHT22;18821;44.800;10.326;2023-03-14T15:04:13;15.40;1.00
32348;DHT22;18821;44.800;10.326;2023-03-14T15:06:46;15.70;1.00
32348;DHT22;18821;44.800;10.326;2023-03-14T15:09:13;15.80;1.00
32348;DHT22;18821;44.800;10.326;2023-03-14T15:11:39;16.20;1.00
32348;DHT22;18821;44.800;10.326;2023-03-14T15:14:05;16.40;1.00
32348;DHT22;18821;44.800;10.326;2023-03-14T15:16:32;16.50;1.00
32348;DHT22;18821;44.800;10.326;2023-03-14T15:19:00;16.20;1.00
32348;DHT22;18821;44.800;10.326;2023-03-14T15:21:28;16.40;1.00
32348;DHT22;18821;44.800;10.326;2023-03-14T15:23:54;16.50;1.00
32348;DHT22;18821;44.800;10.326;2023-03-14T15:26:22;16.20;1.00
32348;DHT22;18821;44.800;10.326;2023-03-14T15:28:52;16.10;1.00
32348;DHT22;18821;44.800;10.326;2023-03-14T15:31:30;15.90;1.00
32348;DHT22;18821;44.800;10.326;2023-03-14T15:33:57;15.50;1.00
32348;DHT22;18821;44.800;10.326;2023-03-14T15:36:28;15.20;1.00
32348;DHT22;18821;44.800;10.326;2023-03-14T15:38:58;15.20;1.00
32348;DHT22;18821;44.800;10.326;2023-03-14T15:41:38;15.10;1.00
32348;DHT22;18821;44.800;10.326;2023-03-14T15:44:04;15.30;1.00
32348;DHT22;18821;44.800;10.326;2023-03-14T15:46:31;15.20;1.00
32348;DHT22;18821;44.800;10.326;2023-03-14T15:48:57;15.30;1.00
32348;DHT22;18821;44.800;10.326;2023-03-14T15:51:25;15.30;1.00
32348;DHT22;18821;44.800;10.326;2023-03-14T15:53:51;15.30;1.00
32348;DHT22;18821;44.800;10.326;2023-03-14T15:56:19;15.00;1.00
32348;DHT22;18821;44.800;10.326;2023-03-14T15:58:45;15.10;1.00
32348;DHT22;18821;44.800;10.326;2023-03-14T16:01:15;15.10;1.00
32348;DHT22;18821;44.800;10.326;2023-03-14T16:03:44;15.00;1.00
32348;DHT22;18821;44.800;10.326;2023-03-14T16:06:11;15.00;1.00
32348;DHT22;18821;44.800;10.326;2023-03-14T16:08:37;15.00;1.00
32348;DHT22;18821;44.800;10.326;2023-03-14T16:11:04;15.00;1.00
32348;DHT22;18821;44.800;10.326;2023-03-14T16:13:30;15.10;1.00
32348;DHT22;18821;44.800;10.326;2023-03-14T16:15:58;15.10;1.00
32348;DHT22;18821;44.800;10.326;2023-03-14T16:18:27;15.00;1.00
32348;DHT22;18821;44.800;10.326;2023-03-14T16:20:58;15.00;1.00
32348;DHT22;18821;44.800;10.326;2023-03-14T16:23:25;15.10;1.00
32348;DHT22;18821;44.800;10.326;2023-03-14T16:25:52;15.20;1.00
32348;DHT22;18821;44.800;10.326;2023-03-14T16:28:19;15.20;1.00
32348;DHT22;18821;44.800;10.326;2023-03-14T16:30:45;15.20;1.00
32348;DHT22;18821;44.800;10.326;2023-03-14T16:33:13;15.20;1.00
32348;DHT22;18821;44.800;10.326;2023-03-14T16:35:39;15.10;1.00
32348;DHT22;18821;44.800;10.326;2023-03-14T16:38:06;15.10;1.00
32348;DHT22;18821;44.800;10.326;2023-03-14T16:40:32;15.00;1.00
32348;DHT22;18821;44.800;10.326;2023-03-14T16:42:58;14.70;1.00
32348;DHT22;18821;44.800;10.326;2023-03-14T16:45:24;14.70;1.00
32348;DHT22;18821;44.800;10.326;2023-03-14T16:47:50;14.60;1.00
32348;DHT22;18821;44.800;10.326;2023-03-14T16:50:16;14.40;1.00
32348;DHT22;18821;44.800;10.326;2023-03-14T16:52:42;14.30;1.00
32348;DHT22;18821;44.800;10.326;2023-03-14T16:55:09;14.20;1.00
32348;DHT22;18821;44.800;10.326;2023-03-14T16:57:35;14.10;1.00
32348;DHT22;18821;44.800;10.326;2023-03-14T17:00:01;14.10;1.00
32348;DHT22;18821;44.800;10.326;2023-03-14T17:02:28;14.00;1.00
32348;DHT22;18821;44.800;10.326;2023-03-14T17:04:54;13.90;1.00